sensor_id;sensor_type;location;lat;lon;timestamp;P1;durP1;ratioP1;P2;durP2;ratioP2
53718;SDS011;39616;48.872;9.390;2022-12-18T00:01:44;52.17;;;20.40;;
53718;SDS011;39616;48.872;9.390;2022-12-18T00:04:18;61.08;;;21.42;;
53718;SDS011;39616;48.872;9.390;2022-12-18T00:06:51;58.38;;;22.15;;
53718;SDS011;39616;48.872;9.390;2022-12-18T00:09:22;57.03;;;22.77;;
53718;SDS011;39616;48.872;9.390;2022-12-18T00:11:52;57.13;;;21.00;;
53718;SDS011;39616;48.872;9.390;2022-12-18T00:14:23;57.85;;;21.15;;
53718;SDS011;39616;48.872;9.390;2022-12-18T00:16:53;55.78;;;19.38;;
53718;SDS011;39616;48.872;9.390;2022-12-18T00:19:23;52.08;;;19.98;;
53718;SDS011;39616;48.872;9.390;2022-12-18T00:21:54;52.42;;;21.48;;
53718;SDS011;39616;48.872;9.390;2022-12-18T00:24:24;51.63;;;20.58;;
53718;SDS011;39616;48.872;9.390;2022-12-18T00:26:54;47.60;;;19.45;;
53718;SDS011;39616;48.872;9.390;2022-12-18T00:29:25;54.95;;;20.13;;
53718;SDS011;39616;48.872;9.390;2022-12-18T00:31:55;59.58;;;20.60;;
53718;SDS011;39616;48.872;9.390;2022-12-18T00:34:25;59.22;;;21.55;;
53718;SDS011;39616;48.872;9.390;2022-12-18T00:36:55;57.10;;;22.20;;
53718;SDS011;39616;48.872;9.390;2022-12-18T00:39:26;49.92;;;20.80;;
53718;SDS011;39616;48.872;9.390;2022-12-18T00:41:56;47.58;;;19.30;;
53718;SDS011;39616;48.872;9.390;2022-12-18T00:44:45;58.83;;;20.65;;
53718;SDS011;39616;48.872;9.390;2022-12-18T00:47:15;58.78;;;19.30;;
53718;SDS011;39616;48.872;9.390;2022-12-18T00:49:45;49.25;;;20.58;;
53718;SDS011;39616;48.872;9.390;2022-12-18T00:52:15;49.85;;;19.95;;
53718;SDS011;39616;48.872;9.390;2022-12-18T00:54:46;59.90;;;22.65;;
53718;SDS011;39616;48.872;9.390;2022-12-18T00:57:16;51.03;;;19.60;;
53718;SDS011;39616;48.872;9.390;2022-12-18T00:59:46;47.60;;;18.73;;
53718;SDS011;39616;48.872;9.390;2022-12-18T01:02:17;57.00;;;21.23;;
53718;SDS011;39616;48.872;9.390;2022-12-18T01:04:47;50.75;;;18.45;;
53718;SDS011;39616;48.872;9.390;2022-12-18T01:07:17;59.35;;;19.92;;
53718;SDS011;39616;48.872;9.390;2022-12-18T01:09:48;47.05;;;18.45;;
53718;SDS011;39616;48.872;9.390;2022-12-18T01:12:18;55.22;;;20.90;;
53718;SDS011;39616;48.872;9.390;2022-12-18T01:14:48;48.58;;;19.75;;
53718;SDS011;39616;48.872;9.390;2022-12-18T01:17:19;53.92;;;19.58;;
53718;SDS011;39616;48.872;9.390;2022-12-18T01:19:49;47.75;;;18.85;;
53718;SDS011;39616;48.872;9.390;2022-12-18T01:22:19;47.42;;;19.60;;
53718;SDS011;39616;48.872;9.390;2022-12-18T01:24:50;43.33;;;18.30;;
53718;SDS011;39616;48.872;9.390;2022-12-18T01:27:20;53.85;;;19.38;;
53718;SDS011;39616;48.872;9.390;2022-12-18T01:29:50;55.88;;;20.67;;
53718;SDS011;39616;48.872;9.390;2022-12-18T01:32:21;50.90;;;18.83;;
53718;SDS011;39616;48.872;9.390;2022-12-18T01:34:51;43.70;;;17.73;;
53718;SDS011;39616;48.872;9.390;2022-12-18T01:37:22;50.78;;;18.48;;
53718;SDS011;39616;48.872;9.390;2022-12-18T01:39:52;45.85;;;18.92;;
53718;SDS011;39616;48.872;9.390;2022-12-18T01:42:24;39.47;;;16.98;;
53718;SDS011;39616;48.872;9.390;2022-12-18T01:49:59;50.13;;;18.73;;
53718;SDS011;39616;48.872;9.390;2022-12-18T01:52:33;40.22;;;16.55;;
53718;SDS011;39616;48.872;9.390;2022-12-18T01:55:07;50.10;;;19.48;;
53718;SDS011;39616;48.872;9.390;2022-12-18T01:57:39;46.33;;;17.60;;
53718;SDS011;39616;48.872;9.390;2022-12-18T02:00:12;43.25;;;17.58;;
53718;SDS011;39616;48.872;9.390;2022-12-18T02:02:46;47.53;;;17.67;;
53718;SDS011;39616;48.872;9.390;2022-12-18T02:05:18;45.72;;;17.75;;
53718;SDS011;39616;48.872;9.390;2022-12-18T02:08:15;48.78;;;17.75;;
53718;SDS011;39616;48.872;9.390;2022-12-18T02:11:11;46.40;;;17.52;;
53718;SDS011;39616;48.872;9.390;2022-12-18T02:13:58;45.20;;;15.85;;
53718;SDS011;39616;48.872;9.390;2022-12-18T02:16:34;56.85;;;17.83;;
53718;SDS011;39616;48.872;9.390;2022-12-18T02:19:26;42.45;;;16.30;;
53718;SDS011;39616;48.872;9.390;2022-12-18T02:24:58;43.78;;;16.33;;
53718;SDS011;39616;48.872;9.390;2022-12-18T02:27:48;46.58;;;17.48;;
53718;SDS011;39616;48.872;9.390;2022-12-18T02:30:20;42.25;;;15.75;;
53718;SDS011;39616;48.872;9.390;2022-12-18T02:32:52;43.70;;;17.33;;
53718;SDS011;39616;48.872;9.390;2022-12-18T02:35:24;47.10;;;18.55;;
53718;SDS011;39616;48.872;9.390;2022-12-18T02:37:57;51.10;;;18.73;;
53718;SDS011;39616;48.872;9.390;2022-12-18T02:40:28;49.78;;;19.10;;
53718;SDS011;39616;48.872;9.390;2022-12-18T02:43:10;43.97;;;18.60;;
53718;SDS011;39616;48.872;9.390;2022-12-18T02:45:50;56.83;;;19.95;;
53718;SDS011;39616;48.872;9.390;2022-12-18T02:48:24;42.70;;;18.00;;
53718;SDS011;39616;48.872;9.390;2022-12-18T02:56:10;44.33;;;16.45;;
53718;SDS011;39616;48.872;9.390;2022-12-18T02:58:55;42.95;;;16.23;;
53718;SDS011;39616;48.872;9.390;2022-12-18T03:01:31;45.17;;;16.52;;
53718;SDS011;39616;48.872;9.390;2022-12-18T03:04:34;42.53;;;18.08;;
53718;SDS011;39616;48.872;9.390;2022-12-18T03:07:15;41.05;;;16.45;;
53718;SDS011;39616;48.872;9.390;2022-12-18T03:09:50;42.25;;;17.75;;
53718;SDS011;39616;48.872;9.390;2022-12-18T03:12:27;47.13;;;16.35;;
53718;SDS011;39616;48.872;9.390;2022-12-18T03:17:42;47.38;;;17.73;;
53718;SDS011;39616;48.872;9.390;2022-12-18T03:20:17;45.00;;;16.77;;
53718;SDS011;39616;48.872;9.390;2022-12-18T03:22:52;43.77;;;17.97;;
53718;SDS011;39616;48.872;9.390;2022-12-18T03:25:27;50.17;;;16.70;;
53718;SDS011;39616;48.872;9.390;2022-12-18T03:27:58;47.30;;;18.20;;
53718;SDS011;39616;48.872;9.390;2022-12-18T03:30:31;45.60;;;16.58;;
53718;SDS011;39616;48.872;9.390;2022-12-18T03:33:19;40.03;;;17.38;;
53718;SDS011;39616;48.872;9.390;2022-12-18T03:35:56;47.35;;;16.88;;
53718;SDS011;39616;48.872;9.390;2022-12-18T03:38:26;46.00;;;18.23;;
53718;SDS011;39616;48.872;9.390;2022-12-18T03:41:08;42.58;;;16.52;;
53718;SDS011;39616;48.872;9.390;2022-12-18T03:43:55;46.78;;;16.33;;
53718;SDS011;39616;48.872;9.390;2022-12-18T03:46:54;41.47;;;15.73;;
53718;SDS011;39616;48.872;9.390;2022-12-18T03:52:38;41.65;;;16.52;;
53718;SDS011;39616;48.872;9.390;2022-12-18T03:55:14;44.47;;;17.08;;
53718;SDS011;39616;48.872;9.390;2022-12-18T03:57:47;42.42;;;15.73;;
53718;SDS011;39616;48.872;9.390;2022-12-18T04:00:18;38.17;;;16.38;;
53718;SDS011;39616;48.872;9.390;2022-12-18T04:02:53;41.80;;;16.35;;
53718;SDS011;39616;48.872;9.390;2022-12-18T04:05:27;40.25;;;16.55;;
53718;SDS011;39616;48.872;9.390;2022-12-18T04:08:00;42.22;;;16.20;;
53718;SDS011;39616;48.872;9.390;2022-12-18T04:10:31;45.70;;;16.48;;
53718;SDS011;39616;48.872;9.390;2022-12-18T04:13:01;51.33;;;17.55;;
53718;SDS011;39616;48.872;9.390;2022-12-18T04:15:35;42.72;;;16.10;;
53718;SDS011;39616;48.872;9.390;2022-12-18T04:18:07;45.63;;;16.50;;
53718;SDS011;39616;48.872;9.390;2022-12-18T04:20:37;45.70;;;17.00;;
53718;SDS011;39616;48.872;9.390;2022-12-18T04:23:08;38.70;;;15.10;;
53718;SDS011;39616;48.872;9.390;2022-12-18T04:25:38;52.35;;;19.27;;
53718;SDS011;39616;48.872;9.390;2022-12-18T04:28:08;49.20;;;17.95;;
53718;SDS011;39616;48.872;9.390;2022-12-18T04:30:39;51.67;;;20.52;;
53718;SDS011;39616;48.872;9.390;2022-12-18T04:33:09;54.13;;;18.45;;
53718;SDS011;39616;48.872;9.390;2022-12-18T04:35:41;47.53;;;16.08;;
53718;SDS011;39616;48.872;9.390;2022-12-18T04:38:12;38.88;;;15.63;;
53718;SDS011;39616;48.872;9.390;2022-12-18T04:40:42;41.38;;;15.82;;
53718;SDS011;39616;48.872;9.390;2022-12-18T04:43:13;46.25;;;17.52;;
53718;SDS011;39616;48.872;9.390;2022-12-18T04:45:43;43.65;;;18.10;;
53718;SDS011;39616;48.872;9.390;2022-12-18T04:48:13;44.13;;;17.08;;
53718;SDS011;39616;48.872;9.390;2022-12-18T04:50:44;44.95;;;18.23;;
53718;SDS011;39616;48.872;9.390;2022-12-18T04:53:14;51.13;;;17.60;;
53718;SDS011;39616;48.872;9.390;2022-12-18T04:55:44;43.88;;;16.83;;
53718;SDS011;39616;48.872;9.390;2022-12-18T04:58:15;42.17;;;16.58;;
53718;SDS011;39616;48.872;9.390;2022-12-18T05:00:45;38.60;;;16.63;;
53718;SDS011;39616;48.872;9.390;2022-12-18T05:03:15;48.13;;;15.98;;
53718;SDS011;39616;48.872;9.390;2022-12-18T05:05:49;39.08;;;14.90;;
53718;SDS011;39616;48.872;9.390;2022-12-18T05:08:20;44.70;;;15.52;;
53718;SDS011;39616;48.872;9.390;2022-12-18T05:10:58;44.22;;;15.30;;
53718;SDS011;39616;48.872;9.390;2022-12-18T05:13:35;43.80;;;16.20;;
53718;SDS011;39616;48.872;9.390;2022-12-18T05:16:06;37.10;;;13.93;;
53718;SDS011;39616;48.872;9.390;2022-12-18T05:18:37;37.88;;;14.23;;
53718;SDS011;39616;48.872;9.390;2022-12-18T05:21:07;41.88;;;16.17;;
53718;SDS011;39616;48.872;9.390;2022-12-18T05:23:38;39.83;;;16.33;;
53718;SDS011;39616;48.872;9.390;2022-12-18T05:26:08;45.63;;;16.70;;
53718;SDS011;39616;48.872;9.390;2022-12-18T05:28:44;45.72;;;15.65;;
53718;SDS011;39616;48.872;9.390;2022-12-18T05:31:15;45.63;;;15.15;;
53718;SDS011;39616;48.872;9.390;2022-12-18T05:33:46;43.33;;;16.25;;
53718;SDS011;39616;48.872;9.390;2022-12-18T05:36:19;48.53;;;17.08;;
53718;SDS011;39616;48.872;9.390;2022-12-18T05:38:49;51.58;;;16.08;;
53718;SDS011;39616;48.872;9.390;2022-12-18T05:41:19;51.70;;;19.33;;
53718;SDS011;39616;48.872;9.390;2022-12-18T05:43:50;52.38;;;19.10;;
53718;SDS011;39616;48.872;9.390;2022-12-18T05:46:20;51.08;;;17.77;;
53718;SDS011;39616;48.872;9.390;2022-12-18T05:48:51;63.00;;;17.80;;
53718;SDS011;39616;48.872;9.390;2022-12-18T05:51:21;47.53;;;16.90;;
53718;SDS011;39616;48.872;9.390;2022-12-18T05:53:52;50.28;;;17.70;;
53718;SDS011;39616;48.872;9.390;2022-12-18T05:56:22;53.53;;;20.17;;
53718;SDS011;39616;48.872;9.390;2022-12-18T05:58:53;48.30;;;17.20;;
53718;SDS011;39616;48.872;9.390;2022-12-18T06:01:24;40.42;;;14.73;;
53718;SDS011;39616;48.872;9.390;2022-12-18T06:03:56;51.78;;;17.67;;
53718;SDS011;39616;48.872;9.390;2022-12-18T06:06:27;45.95;;;16.75;;
53718;SDS011;39616;48.872;9.390;2022-12-18T06:08:58;43.70;;;14.13;;
53718;SDS011;39616;48.872;9.390;2022-12-18T06:11:29;38.20;;;15.38;;
53718;SDS011;39616;48.872;9.390;2022-12-18T06:13:59;37.78;;;14.27;;
53718;SDS011;39616;48.872;9.390;2022-12-18T06:16:30;37.70;;;14.10;;
53718;SDS011;39616;48.872;9.390;2022-12-18T06:19:01;45.85;;;15.20;;
53718;SDS011;39616;48.872;9.390;2022-12-18T06:21:34;48.80;;;15.10;;
53718;SDS011;39616;48.872;9.390;2022-12-18T06:24:04;37.20;;;13.70;;
53718;SDS011;39616;48.872;9.390;2022-12-18T06:26:36;37.00;;;13.82;;
53718;SDS011;39616;48.872;9.390;2022-12-18T06:29:08;36.15;;;13.88;;
53718;SDS011;39616;48.872;9.390;2022-12-18T06:31:39;35.58;;;13.63;;
53718;SDS011;39616;48.872;9.390;2022-12-18T06:34:09;37.17;;;13.20;;
53718;SDS011;39616;48.872;9.390;2022-12-18T06:36:40;42.10;;;13.45;;
53718;SDS011;39616;48.872;9.390;2022-12-18T06:39:10;35.47;;;13.90;;
53718;SDS011;39616;48.872;9.390;2022-12-18T06:41:41;29.38;;;12.55;;
53718;SDS011;39616;48.872;9.390;2022-12-18T06:44:11;34.13;;;13.40;;
53718;SDS011;39616;48.872;9.390;2022-12-18T06:46:41;36.92;;;12.75;;
53718;SDS011;39616;48.872;9.390;2022-12-18T06:49:12;41.72;;;14.30;;
53718;SDS011;39616;48.872;9.390;2022-12-18T06:51:42;35.35;;;13.45;;
53718;SDS011;39616;48.872;9.390;2022-12-18T06:54:13;32.60;;;12.40;;
53718;SDS011;39616;48.872;9.390;2022-12-18T06:56:44;38.10;;;13.10;;
53718;SDS011;39616;48.872;9.390;2022-12-18T06:59:15;39.10;;;13.95;;
53718;SDS011;39616;48.872;9.390;2022-12-18T07:01:46;33.83;;;12.88;;
53718;SDS011;39616;48.872;9.390;2022-12-18T07:04:16;45.22;;;14.45;;
53718;SDS011;39616;48.872;9.390;2022-12-18T07:06:46;42.42;;;14.38;;
53718;SDS011;39616;48.872;9.390;2022-12-18T07:09:16;31.90;;;12.07;;
53718;SDS011;39616;48.872;9.390;2022-12-18T07:11:47;49.95;;;15.27;;
53718;SDS011;39616;48.872;9.390;2022-12-18T07:14:17;45.63;;;14.52;;
53718;SDS011;39616;48.872;9.390;2022-12-18T07:16:47;43.10;;;15.90;;
53718;SDS011;39616;48.872;9.390;2022-12-18T07:19:18;43.58;;;14.77;;
53718;SDS011;39616;48.872;9.390;2022-12-18T07:21:49;36.33;;;14.00;;
53718;SDS011;39616;48.872;9.390;2022-12-18T07:24:20;45.53;;;15.85;;
53718;SDS011;39616;48.872;9.390;2022-12-18T07:26:50;43.70;;;14.90;;
53718;SDS011;39616;48.872;9.390;2022-12-18T07:29:21;45.47;;;14.88;;
53718;SDS011;39616;48.872;9.390;2022-12-18T07:31:51;35.72;;;14.15;;
53718;SDS011;39616;48.872;9.390;2022-12-18T07:34:21;38.22;;;13.10;;
53718;SDS011;39616;48.872;9.390;2022-12-18T07:36:52;40.40;;;13.68;;
53718;SDS011;39616;48.872;9.390;2022-12-18T07:39:22;36.30;;;14.05;;
53718;SDS011;39616;48.872;9.390;2022-12-18T07:41:52;32.78;;;12.40;;
53718;SDS011;39616;48.872;9.390;2022-12-18T07:44:41;49.15;;;15.52;;
53718;SDS011;39616;48.872;9.390;2022-12-18T07:47:11;53.05;;;15.65;;
53718;SDS011;39616;48.872;9.390;2022-12-18T07:49:42;50.97;;;15.70;;
53718;SDS011;39616;48.872;9.390;2022-12-18T07:52:12;52.10;;;16.30;;
53718;SDS011;39616;48.872;9.390;2022-12-18T07:54:42;44.15;;;15.88;;
53718;SDS011;39616;48.872;9.390;2022-12-18T07:57:12;47.58;;;16.52;;
53718;SDS011;39616;48.872;9.390;2022-12-18T07:59:46;43.65;;;14.93;;
53718;SDS011;39616;48.872;9.390;2022-12-18T08:02:16;49.42;;;17.15;;
53718;SDS011;39616;48.872;9.390;2022-12-18T08:04:46;42.92;;;16.63;;
53718;SDS011;39616;48.872;9.390;2022-12-18T08:07:17;46.10;;;16.67;;
53718;SDS011;39616;48.872;9.390;2022-12-18T08:09:47;49.65;;;17.58;;
53718;SDS011;39616;48.872;9.390;2022-12-18T08:12:17;44.40;;;15.38;;
53718;SDS011;39616;48.872;9.390;2022-12-18T08:14:47;45.10;;;15.80;;
53718;SDS011;39616;48.872;9.390;2022-12-18T08:17:19;41.33;;;15.80;;
53718;SDS011;39616;48.872;9.390;2022-12-18T08:19:49;36.78;;;14.82;;
53718;SDS011;39616;48.872;9.390;2022-12-18T08:22:20;51.40;;;18.40;;
53718;SDS011;39616;48.872;9.390;2022-12-18T08:24:50;44.38;;;16.60;;
53718;SDS011;39616;48.872;9.390;2022-12-18T08:27:20;52.40;;;16.15;;
53718;SDS011;39616;48.872;9.390;2022-12-18T08:29:51;51.05;;;17.60;;
53718;SDS011;39616;48.872;9.390;2022-12-18T08:32:21;53.15;;;17.70;;
53718;SDS011;39616;48.872;9.390;2022-12-18T08:34:52;41.45;;;16.05;;
53718;SDS011;39616;48.872;9.390;2022-12-18T08:37:22;52.90;;;16.90;;
53718;SDS011;39616;48.872;9.390;2022-12-18T08:39:52;50.53;;;17.48;;
53718;SDS011;39616;48.872;9.390;2022-12-18T08:42:22;48.33;;;16.27;;
53718;SDS011;39616;48.872;9.390;2022-12-18T08:45:12;61.80;;;18.27;;
53718;SDS011;39616;48.872;9.390;2022-12-18T08:47:42;46.25;;;16.60;;
53718;SDS011;39616;48.872;9.390;2022-12-18T08:50:12;51.92;;;17.60;;
53718;SDS011;39616;48.872;9.390;2022-12-18T08:52:42;51.95;;;17.55;;
53718;SDS011;39616;48.872;9.390;2022-12-18T08:55:13;50.55;;;17.83;;
53718;SDS011;39616;48.872;9.390;2022-12-18T08:57:43;47.90;;;17.67;;
53718;SDS011;39616;48.872;9.390;2022-12-18T09:00:18;54.10;;;17.65;;
53718;SDS011;39616;48.872;9.390;2022-12-18T09:02:48;51.60;;;19.60;;
53718;SDS011;39616;48.872;9.390;2022-12-18T09:05:19;55.30;;;19.40;;
53718;SDS011;39616;48.872;9.390;2022-12-18T09:07:49;57.60;;;19.83;;
53718;SDS011;39616;48.872;9.390;2022-12-18T09:10:19;53.88;;;18.33;;
53718;SDS011;39616;48.872;9.390;2022-12-18T09:12:50;53.10;;;18.25;;
53718;SDS011;39616;48.872;9.390;2022-12-18T09:15:20;52.50;;;17.60;;
53718;SDS011;39616;48.872;9.390;2022-12-18T09:17:50;50.25;;;17.50;;
53718;SDS011;39616;48.872;9.390;2022-12-18T09:20:22;53.45;;;18.48;;
53718;SDS011;39616;48.872;9.390;2022-12-18T09:22:53;45.63;;;16.00;;
53718;SDS011;39616;48.872;9.390;2022-12-18T09:25:23;49.50;;;18.92;;
53718;SDS011;39616;48.872;9.390;2022-12-18T09:27:53;47.85;;;17.70;;
53718;SDS011;39616;48.872;9.390;2022-12-18T09:30:23;52.25;;;18.58;;
53718;SDS011;39616;48.872;9.390;2022-12-18T09:32:54;54.55;;;19.52;;
53718;SDS011;39616;48.872;9.390;2022-12-18T09:35:25;50.58;;;17.33;;
53718;SDS011;39616;48.872;9.390;2022-12-18T09:37:55;50.78;;;19.10;;
53718;SDS011;39616;48.872;9.390;2022-12-18T09:40:35;49.28;;;17.92;;
53718;SDS011;39616;48.872;9.390;2022-12-18T09:43:13;48.13;;;18.08;;
53718;SDS011;39616;48.872;9.390;2022-12-18T09:45:49;50.05;;;17.27;;
53718;SDS011;39616;48.872;9.390;2022-12-18T09:48:25;47.35;;;18.08;;
53718;SDS011;39616;48.872;9.390;2022-12-18T09:51:00;47.90;;;16.77;;
53718;SDS011;39616;48.872;9.390;2022-12-18T09:53:39;49.83;;;17.33;;
53718;SDS011;39616;48.872;9.390;2022-12-18T09:56:18;50.05;;;17.52;;
53718;SDS011;39616;48.872;9.390;2022-12-18T09:58:57;42.63;;;15.32;;
53718;SDS011;39616;48.872;9.390;2022-12-18T10:01:29;44.92;;;17.58;;
53718;SDS011;39616;48.872;9.390;2022-12-18T10:04:01;54.97;;;17.65;;
53718;SDS011;39616;48.872;9.390;2022-12-18T10:06:39;51.53;;;16.92;;
53718;SDS011;39616;48.872;9.390;2022-12-18T10:12:21;49.35;;;16.52;;
53718;SDS011;39616;48.872;9.390;2022-12-18T10:15:10;51.42;;;17.77;;
53718;SDS011;39616;48.872;9.390;2022-12-18T10:17:51;45.83;;;17.58;;
53718;SDS011;39616;48.872;9.390;2022-12-18T10:20:32;42.33;;;14.75;;
53718;SDS011;39616;48.872;9.390;2022-12-18T10:26:02;50.38;;;17.40;;
53718;SDS011;39616;48.872;9.390;2022-12-18T10:28:35;48.40;;;17.75;;
53718;SDS011;39616;48.872;9.390;2022-12-18T10:31:12;49.80;;;17.70;;
53718;SDS011;39616;48.872;9.390;2022-12-18T10:33:46;49.28;;;17.67;;
53718;SDS011;39616;48.872;9.390;2022-12-18T10:36:17;50.60;;;18.48;;
53718;SDS011;39616;48.872;9.390;2022-12-18T10:38:47;43.60;;;16.30;;
53718;SDS011;39616;48.872;9.390;2022-12-18T10:43:50;45.42;;;17.88;;
53718;SDS011;39616;48.872;9.390;2022-12-18T10:46:46;50.25;;;16.50;;
53718;SDS011;39616;48.872;9.390;2022-12-18T10:49:21;43.70;;;17.85;;
53718;SDS011;39616;48.872;9.390;2022-12-18T10:55:03;46.83;;;16.33;;
53718;SDS011;39616;48.872;9.390;2022-12-18T10:57:35;45.85;;;16.45;;
53718;SDS011;39616;48.872;9.390;2022-12-18T11:02:52;44.30;;;15.25;;
53718;SDS011;39616;48.872;9.390;2022-12-18T11:05:30;44.72;;;15.93;;
53718;SDS011;39616;48.872;9.390;2022-12-18T11:08:01;47.90;;;17.67;;
53718;SDS011;39616;48.872;9.390;2022-12-18T11:10:33;42.95;;;14.95;;
53718;SDS011;39616;48.872;9.390;2022-12-18T11:13:10;50.80;;;17.70;;
53718;SDS011;39616;48.872;9.390;2022-12-18T11:15:42;51.88;;;18.23;;
53718;SDS011;39616;48.872;9.390;2022-12-18T11:23:46;44.65;;;16.40;;
53718;SDS011;39616;48.872;9.390;2022-12-18T11:26:20;43.78;;;15.10;;
53718;SDS011;39616;48.872;9.390;2022-12-18T11:28:52;48.42;;;16.48;;
53718;SDS011;39616;48.872;9.390;2022-12-18T11:31:39;45.05;;;15.07;;
53718;SDS011;39616;48.872;9.390;2022-12-18T11:37:14;49.92;;;16.83;;
53718;SDS011;39616;48.872;9.390;2022-12-18T11:39:49;46.13;;;16.02;;
53718;SDS011;39616;48.872;9.390;2022-12-18T11:42:35;46.25;;;16.02;;
53718;SDS011;39616;48.872;9.390;2022-12-18T11:50:17;43.78;;;14.50;;
53718;SDS011;39616;48.872;9.390;2022-12-18T12:01:04;43.05;;;17.38;;
53718;SDS011;39616;48.872;9.390;2022-12-18T12:03:51;50.15;;;15.35;;
53718;SDS011;39616;48.872;9.390;2022-12-18T12:06:52;44.30;;;14.20;;
53718;SDS011;39616;48.872;9.390;2022-12-18T12:09:40;42.53;;;16.13;;
53718;SDS011;39616;48.872;9.390;2022-12-18T12:15:20;47.47;;;15.48;;
53718;SDS011;39616;48.872;9.390;2022-12-18T12:23:28;44.63;;;16.92;;
53718;SDS011;39616;48.872;9.390;2022-12-18T12:29:19;43.25;;;16.17;;
53718;SDS011;39616;48.872;9.390;2022-12-18T12:40:49;46.95;;;17.13;;
53718;SDS011;39616;48.872;9.390;2022-12-18T12:43:30;45.90;;;16.08;;
53718;SDS011;39616;48.872;9.390;2022-12-18T12:46:11;49.10;;;16.42;;
53718;SDS011;39616;48.872;9.390;2022-12-18T12:48:52;43.05;;;15.38;;
53718;SDS011;39616;48.872;9.390;2022-12-18T12:54:00;43.58;;;15.77;;
53718;SDS011;39616;48.872;9.390;2022-12-18T12:56:40;44.88;;;16.27;;
53718;SDS011;39616;48.872;9.390;2022-12-18T12:59:25;43.80;;;16.25;;
53718;SDS011;39616;48.872;9.390;2022-12-18T13:05:02;43.78;;;17.33;;
53718;SDS011;39616;48.872;9.390;2022-12-18T13:07:47;40.70;;;15.00;;
53718;SDS011;39616;48.872;9.390;2022-12-18T13:13:11;41.95;;;15.25;;
53718;SDS011;39616;48.872;9.390;2022-12-18T13:15:45;47.13;;;16.02;;
53718;SDS011;39616;48.872;9.390;2022-12-18T13:36:49;44.20;;;16.10;;
53718;SDS011;39616;48.872;9.390;2022-12-18T13:39:22;39.75;;;15.02;;
53718;SDS011;39616;48.872;9.390;2022-12-18T13:44:38;47.53;;;16.20;;
53718;SDS011;39616;48.872;9.390;2022-12-18T13:47:25;45.08;;;17.15;;
53718;SDS011;39616;48.872;9.390;2022-12-18T13:50:02;39.60;;;14.52;;
53718;SDS011;39616;48.872;9.390;2022-12-18T13:52:42;45.53;;;15.73;;
53718;SDS011;39616;48.872;9.390;2022-12-18T13:55:18;48.92;;;16.80;;
53718;SDS011;39616;48.872;9.390;2022-12-18T13:57:50;43.45;;;15.55;;
53718;SDS011;39616;48.872;9.390;2022-12-18T14:00:34;46.05;;;16.10;;
53718;SDS011;39616;48.872;9.390;2022-12-18T14:03:15;41.42;;;16.77;;
53718;SDS011;39616;48.872;9.390;2022-12-18T14:06:05;41.65;;;15.57;;
53718;SDS011;39616;48.872;9.390;2022-12-18T14:08:38;50.67;;;19.48;;
53718;SDS011;39616;48.872;9.390;2022-12-18T14:11:18;44.70;;;17.20;;
53718;SDS011;39616;48.872;9.390;2022-12-18T14:13:51;37.50;;;15.07;;
53718;SDS011;39616;48.872;9.390;2022-12-18T14:16:22;40.75;;;15.82;;
53718;SDS011;39616;48.872;9.390;2022-12-18T14:18:56;44.95;;;15.70;;
53718;SDS011;39616;48.872;9.390;2022-12-18T14:21:28;44.75;;;16.67;;
53718;SDS011;39616;48.872;9.390;2022-12-18T14:24:18;40.83;;;15.43;;
53718;SDS011;39616;48.872;9.390;2022-12-18T14:26:51;44.28;;;15.93;;
53718;SDS011;39616;48.872;9.390;2022-12-18T14:29:25;43.17;;;17.10;;
53718;SDS011;39616;48.872;9.390;2022-12-18T14:32:04;42.00;;;14.93;;
53718;SDS011;39616;48.872;9.390;2022-12-18T14:34:43;45.15;;;16.77;;
53718;SDS011;39616;48.872;9.390;2022-12-18T14:37:17;40.75;;;15.55;;
53718;SDS011;39616;48.872;9.390;2022-12-18T14:39:58;41.97;;;16.10;;
53718;SDS011;39616;48.872;9.390;2022-12-18T14:42:30;38.72;;;14.20;;
53718;SDS011;39616;48.872;9.390;2022-12-18T14:48:07;38.85;;;15.63;;
53718;SDS011;39616;48.872;9.390;2022-12-18T14:50:42;45.00;;;16.73;;
53718;SDS011;39616;48.872;9.390;2022-12-18T14:56:10;43.65;;;15.90;;
53718;SDS011;39616;48.872;9.390;2022-12-18T14:58:44;42.58;;;16.75;;
53718;SDS011;39616;48.872;9.390;2022-12-18T15:03:51;45.78;;;15.82;;
53718;SDS011;39616;48.872;9.390;2022-12-18T15:08:56;38.78;;;15.48;;
53718;SDS011;39616;48.872;9.390;2022-12-18T15:17:12;44.88;;;16.95;;
53718;SDS011;39616;48.872;9.390;2022-12-18T15:19:47;41.17;;;15.60;;
53718;SDS011;39616;48.872;9.390;2022-12-18T15:22:26;46.35;;;16.73;;
53718;SDS011;39616;48.872;9.390;2022-12-18T15:25:03;47.80;;;17.75;;
53718;SDS011;39616;48.872;9.390;2022-12-18T15:28:17;39.97;;;16.02;;
53718;SDS011;39616;48.872;9.390;2022-12-18T15:31:20;42.60;;;15.93;;
53718;SDS011;39616;48.872;9.390;2022-12-18T15:36:24;42.95;;;16.48;;
53718;SDS011;39616;48.872;9.390;2022-12-18T15:38:59;45.33;;;16.15;;
53718;SDS011;39616;48.872;9.390;2022-12-18T15:41:30;45.83;;;16.65;;
53718;SDS011;39616;48.872;9.390;2022-12-18T15:44:21;49.95;;;17.88;;
53718;SDS011;39616;48.872;9.390;2022-12-18T15:46:53;47.13;;;16.98;;
53718;SDS011;39616;48.872;9.390;2022-12-18T15:49:26;47.33;;;16.80;;
53718;SDS011;39616;48.872;9.390;2022-12-18T15:51:58;43.53;;;16.15;;
53718;SDS011;39616;48.872;9.390;2022-12-18T15:54:29;49.78;;;17.65;;
53718;SDS011;39616;48.872;9.390;2022-12-18T15:57:18;45.22;;;16.35;;
53718;SDS011;39616;48.872;9.390;2022-12-18T15:59:55;42.47;;;15.07;;
53718;SDS011;39616;48.872;9.390;2022-12-18T16:02:27;40.70;;;15.05;;
53718;SDS011;39616;48.872;9.390;2022-12-18T16:04:58;39.92;;;15.65;;
53718;SDS011;39616;48.872;9.390;2022-12-18T16:07:28;46.90;;;17.27;;
53718;SDS011;39616;48.872;9.390;2022-12-18T16:09:59;47.30;;;16.45;;
53718;SDS011;39616;48.872;9.390;2022-12-18T16:12:29;46.38;;;16.55;;
53718;SDS011;39616;48.872;9.390;2022-12-18T16:15:00;43.72;;;16.45;;
53718;SDS011;39616;48.872;9.390;2022-12-18T16:17:30;41.33;;;16.77;;
53718;SDS011;39616;48.872;9.390;2022-12-18T16:20:00;46.92;;;17.98;;
53718;SDS011;39616;48.872;9.390;2022-12-18T16:22:31;42.10;;;16.02;;
53718;SDS011;39616;48.872;9.390;2022-12-18T16:25:01;43.60;;;16.42;;
53718;SDS011;39616;48.872;9.390;2022-12-18T16:27:31;43.85;;;15.70;;
53718;SDS011;39616;48.872;9.390;2022-12-18T16:30:02;47.95;;;17.80;;
53718;SDS011;39616;48.872;9.390;2022-12-18T16:32:32;47.00;;;17.10;;
53718;SDS011;39616;48.872;9.390;2022-12-18T16:35:03;50.78;;;15.82;;
53718;SDS011;39616;48.872;9.390;2022-12-18T16:37:33;48.80;;;17.23;;
53718;SDS011;39616;48.872;9.390;2022-12-18T16:40:04;47.08;;;16.70;;
53718;SDS011;39616;48.872;9.390;2022-12-18T16:42:39;45.05;;;16.65;;
53718;SDS011;39616;48.872;9.390;2022-12-18T16:45:12;45.70;;;17.17;;
53718;SDS011;39616;48.872;9.390;2022-12-18T16:47:45;44.60;;;15.57;;
53718;SDS011;39616;48.872;9.390;2022-12-18T16:50:16;41.95;;;15.70;;
53718;SDS011;39616;48.872;9.390;2022-12-18T16:52:46;48.47;;;17.58;;
53718;SDS011;39616;48.872;9.390;2022-12-18T16:55:16;43.00;;;15.90;;
53718;SDS011;39616;48.872;9.390;2022-12-18T16:57:49;44.17;;;15.60;;
53718;SDS011;39616;48.872;9.390;2022-12-18T17:00:20;48.05;;;16.85;;
53718;SDS011;39616;48.872;9.390;2022-12-18T17:02:50;48.17;;;16.75;;
53718;SDS011;39616;48.872;9.390;2022-12-18T17:05:20;43.47;;;15.43;;